Time;durP1;ratioP1;P1;durP2;ratioP2;P2;SDS_P1;SDS_P2;PMS_P1;PMS_P2;Temp;Humidity;BMP_temperature;BMP_pressure;BME280_temperature;BME280_humidity;BME280_pressure;Samples;Min_cycle;Max_cycle;Signal;HPM_P1;HPM_P2
2021/03/25 00:00:43;;;;;;;25.45;14.77;;;6.20;99.90;;;;;;5031402;28;20228;-73
2021/03/25 00:03:17;;;;;;;23.38;13.73;;;6.20;99.90;;;;;;4997544;28;20288;-73
2021/03/25 00:05:45;;;;;;;27.20;15.02;;;6.20;99.90;;;;;;5013824;28;20251;-73
2021/03/25 00:08:19;;;;;;;25.70;14.10;;;6.10;99.90;;;;;;5013543;28;20678;-73
2021/03/25 00:10:48;;;;;;;23.90;14.52;;;6.10;99.90;;;;;;5013394;28;20421;-73
2021/03/25 00:13:15;;;;;;;22.63;14.30;;;6.10;99.90;;;;;;5013556;28;20194;-73
2021/03/25 00:15:41;;;;;;;30.23;14.35;;;6.00;99.90;;;;;;5013773;28;20186;-73
2021/03/25 00:18:08;;;;;;;26.60;14.65;;;6.10;99.90;;;;;;4997830;28;20174;-73
2021/03/25 00:20:34;;;;;;;31.05;13.70;;;6.00;99.90;;;;;;4995112;28;20228;-73
2021/03/25 00:23:00;;;;;;;25.05;13.95;;;5.90;99.90;;;;;;5006710;28;20233;-73
2021/03/25 00:25:30;;;;;;;26.10;15.13;;;5.90;99.90;;;;;;5006287;28;20879;-73
2021/03/25 00:27:57;;;;;;;29.75;14.13;;;5.90;99.90;;;;;;5010893;28;20181;-73
2021/03/25 00:30:26;;;;;;;29.10;15.45;;;5.90;99.90;;;;;;5009956;28;20186;-73
2021/03/25 00:32:53;;;;;;;26.55;14.40;;;5.90;99.90;;;;;;5011248;28;20217;-73
2021/03/25 00:35:20;;;;;;;25.20;13.82;;;5.80;99.90;;;;;;4993876;28;20186;-73
2021/03/25 00:37:46;;;;;;;23.52;14.40;;;5.80;99.90;;;;;;5010608;28;20530;-73
2021/03/25 00:40:13;;;;;;;28.40;15.20;;;5.80;99.90;;;;;;5010372;28;20720;-73
2021/03/25 00:42:39;;;;;;;26.13;14.70;;;5.80;99.90;;;;;;5008672;28;20319;-73
2021/03/25 00:45:15;;;;;;;25.10;14.50;;;5.80;99.90;;;;;;4991918;28;20528;-73
2021/03/25 00:47:42;;;;;;;25.25;16.00;;;5.80;99.90;;;;;;5007297;28;20183;-73
2021/03/25 00:50:26;;;;;;;30.08;15.95;;;5.80;99.90;;;;;;5010084;28;20171;-72
2021/03/25 00:52:52;;;;;;;30.00;15.07;;;5.80;99.90;;;;;;5009937;28;20202;-73
2021/03/25 00:55:19;;;;;;;26.70;13.68;;;5.80;99.90;;;;;;5010719;28;20565;-73
2021/03/25 00:57:47;;;;;;;32.05;16.38;;;5.80;99.90;;;;;;4990483;28;20394;-73
2021/03/25 01:00:27;;;;;;;25.92;15.10;;;5.70;99.90;;;;;;5009462;28;20186;-73
2021/03/25 01:02:54;;;;;;;26.63;13.88;;;5.70;99.90;;;;;;5009901;28;20675;-73
2021/03/25 01:05:22;;;;;;;23.70;13.07;;;5.70;99.90;;;;;;4990359;28;20560;-73
2021/03/25 01:07:49;;;;;;;22.45;14.05;;;5.70;99.90;;;;;;5008394;28;20744;-73
2021/03/25 01:10:34;;;;;;;24.75;13.95;;;5.60;99.90;;;;;;4978003;28;20182;-73
2021/03/25 01:13:03;;;;;;;21.83;13.20;;;5.60;99.90;;;;;;4994821;28;20293;-73
2021/03/25 01:15:29;;;;;;;33.50;16.92;;;5.50;99.90;;;;;;5011010;28;20222;-73
2021/03/25 01:18:00;;;;;;;25.05;15.55;;;5.50;99.90;;;;;;5010801;28;20231;-73
2021/03/25 01:20:30;;;;;;;24.55;13.98;;;5.50;99.90;;;;;;5009808;28;20175;-73
2021/03/25 01:23:16;;;;;;;29.60;15.52;;;5.40;99.90;;;;;;5011931;28;20257;-73
2021/03/25 01:25:42;;;;;;;27.00;15.18;;;5.40;99.90;;;;;;5028399;28;20694;-73
2021/03/25 01:28:12;;;;;;;25.40;14.88;;;5.40;99.90;;;;;;5013017;28;20173;-73
2021/03/25 01:30:41;;;;;;;24.88;14.25;;;5.30;99.90;;;;;;5030640;28;20181;-73
2021/03/25 01:33:11;;;;;;;23.13;13.80;;;5.30;99.90;;;;;;5013153;28;20201;-73
2021/03/25 01:35:39;;;;;;;30.08;15.85;;;5.30;99.90;;;;;;5011820;28;20195;-73
2021/03/25 01:38:08;;;;;;;27.95;15.45;;;5.20;99.90;;;;;;5012688;28;20272;-74
2021/03/25 01:40:42;;;;;;;31.60;15.70;;;5.30;99.90;;;;;;5014399;28;20190;-73
2021/03/25 01:43:16;;;;;;;25.85;15.38;;;5.30;99.90;;;;;;5011884;28;20217;-73
2021/03/25 01:45:51;;;;;;;28.70;14.07;;;5.30;99.90;;;;;;5028010;28;20280;-73
2021/03/25 01:48:20;;;;;;;19.40;13.88;;;5.30;99.90;;;;;;5033398;28;20173;-73
2021/03/25 01:50:49;;;;;;;27.00;15.10;;;5.30;99.90;;;;;;4999771;28;20209;-73
2021/03/25 01:53:56;;;;;;;25.30;14.95;;;5.30;99.90;;;;;;5012773;28;20600;-73
2021/03/25 01:56:53;;;;;;;28.35;15.32;;;5.20;99.90;;;;;;5025417;28;20627;-73
2021/03/25 01:59:44;;;;;;;26.85;15.40;;;5.30;99.90;;;;;;5033171;28;20188;-73
2021/03/25 02:02:39;;;;;;;26.55;15.80;;;5.20;99.90;;;;;;5015603;28;20200;-73
2021/03/25 02:05:28;;;;;;;27.67;16.42;;;5.20;99.90;;;;;;5000723;28;20204;-73
2021/03/25 02:08:17;;;;;;;26.67;16.70;;;5.30;99.90;;;;;;5015878;28;20542;-73
2021/03/25 02:10:57;;;;;;;28.27;15.55;;;5.30;99.90;;;;;;5015981;28;20204;-73
2021/03/25 02:13:41;;;;;;;27.42;15.13;;;5.30;99.90;;;;;;5015330;28;20292;-73
2021/03/25 02:16:33;;;;;;;27.92;15.52;;;5.40;99.90;;;;;;4999439;28;20198;-73
2021/03/25 02:19:42;;;;;;;27.42;15.77;;;5.40;99.90;;;;;;5033157;28;20223;-73
2021/03/25 02:22:26;;;;;;;28.73;16.35;;;5.50;99.90;;;;;;4998521;28;20317;-73
2021/03/25 02:25:04;;;;;;;28.55;17.92;;;5.50;99.90;;;;;;5013510;28;20233;-73
2021/03/25 02:28:36;;;;;;;28.38;16.50;;;5.50;99.90;;;;;;4986713;28;20246;-73
2021/03/25 02:31:24;;;;;;;27.98;15.50;;;5.50;99.90;;;;;;4990675;28;20181;-73
2021/03/25 02:34:05;;;;;;;26.42;16.08;;;5.60;99.90;;;;;;5032810;28;20205;-73
2021/03/25 02:36:49;;;;;;;32.15;18.10;;;5.60;99.90;;;;;;4998840;28;20181;-73
2021/03/25 02:39:31;;;;;;;25.08;14.68;;;5.60;99.90;;;;;;4995952;28;20258;-73
2021/03/25 02:42:00;;;;;;;31.73;16.98;;;5.60;99.90;;;;;;5018805;28;20292;-73
2021/03/25 02:44:49;;;;;;;31.83;16.65;;;5.70;99.90;;;;;;4998975;28;20705;-73
2021/03/25 02:47:17;;;;;;;26.85;15.75;;;5.70;99.90;;;;;;4985123;28;20211;-73
2021/03/25 02:50:02;;;;;;;29.17;16.90;;;5.80;99.90;;;;;;5016028;28;20170;-73
2021/03/25 02:52:38;;;;;;;30.08;16.85;;;5.80;99.90;;;;;;5009829;28;20201;-72
2021/03/25 02:55:14;;;;;;;29.50;17.20;;;5.90;99.90;;;;;;5026673;28;20289;-73
2021/03/25 02:58:00;;;;;;;36.83;18.38;;;5.90;99.90;;;;;;4988817;28;20524;-73
2021/03/25 03:00:42;;;;;;;32.78;17.33;;;5.90;99.90;;;;;;5032946;28;20660;-73
2021/03/25 03:03:14;;;;;;;31.17;18.50;;;6.00;99.90;;;;;;5031863;28;20287;-73
2021/03/25 03:06:29;;;;;;;31.65;17.85;;;6.00;99.90;;;;;;4971458;28;20210;-73
2021/03/25 03:09:07;;;;;;;30.50;16.65;;;6.10;99.90;;;;;;4936154;29;20602;-73
2021/03/25 03:11:41;;;;;;;35.13;17.92;;;6.20;99.90;;;;;;4973847;28;20215;-73
2021/03/25 03:14:24;;;;;;;34.97;17.55;;;6.20;99.90;;;;;;5010987;28;20252;-73
2021/03/25 03:16:56;;;;;;;34.97;18.08;;;6.30;99.90;;;;;;5031591;28;20169;-73
2021/03/25 03:19:22;;;;;;;34.05;19.08;;;6.40;99.90;;;;;;5032342;28;20177;-73
2021/03/25 03:22:01;;;;;;;31.43;18.33;;;6.40;99.90;;;;;;4982066;28;20197;-73
2021/03/25 03:24:53;;;;;;;36.88;20.20;;;6.40;99.90;;;;;;5010861;28;20566;-73
2021/03/25 03:27:41;;;;;;;32.80;18.88;;;6.40;99.90;;;;;;5010678;28;20180;-73
2021/03/25 03:30:23;;;;;;;43.55;20.83;;;6.40;99.90;;;;;;5010918;28;20208;-73
2021/03/25 03:33:18;;;;;;;36.83;19.55;;;6.40;99.90;;;;;;4996631;28;20296;-73
2021/03/25 03:35:56;;;;;;;31.50;18.48;;;6.50;99.90;;;;;;5011382;28;20170;-73
2021/03/25 03:38:33;;;;;;;35.40;20.30;;;6.50;99.90;;;;;;4994480;28;20191;-73
2021/03/25 03:41:16;;;;;;;32.05;18.13;;;6.60;99.90;;;;;;5010192;28;20197;-73
2021/03/25 03:43:44;;;;;;;34.28;19.67;;;6.60;99.90;;;;;;5010787;28;20210;-73
2021/03/25 03:46:19;;;;;;;43.90;21.58;;;6.60;99.90;;;;;;5012498;28;20685;-73
2021/03/25 03:48:53;;;;;;;34.23;18.63;;;6.70;99.90;;;;;;5001392;28;20199;-72
2021/03/25 03:51:36;;;;;;;40.13;19.88;;;6.70;99.90;;;;;;4991446;28;20510;-73
2021/03/25 03:54:04;;;;;;;34.83;19.30;;;6.70;99.90;;;;;;5010084;28;20663;-73
2021/03/25 03:56:53;;;;;;;36.70;20.98;;;6.70;99.90;;;;;;4994358;28;20480;-73
2021/03/25 03:59:35;;;;;;;29.23;17.45;;;6.70;99.90;;;;;;4991067;28;20172;-73
2021/03/25 04:02:20;;;;;;;31.03;18.23;;;6.70;99.90;;;;;;5008806;28;20218;-73
2021/03/25 04:05:01;;;;;;;31.17;19.23;;;6.70;99.90;;;;;;5010935;28;20958;-73
2021/03/25 04:08:11;;;;;;;47.67;20.00;;;6.70;99.90;;;;;;5007383;28;20456;-72
2021/03/25 04:11:40;;;;;;;32.37;20.10;;;6.70;99.90;;;;;;4994327;28;20935;-73
2021/03/25 04:14:16;;;;;;;32.42;18.92;;;6.70;99.90;;;;;;4998649;28;20442;-73
2021/03/25 04:17:02;;;;;;;31.15;19.88;;;6.70;99.90;;;;;;4991838;28;20554;-73
2021/03/25 04:19:50;;;;;;;32.45;18.65;;;6.80;99.90;;;;;;4994472;28;20175;-73
2021/03/25 04:22:31;;;;;;;37.33;19.93;;;6.70;99.90;;;;;;4978655;28;20206;-73
2021/03/25 04:25:12;;;;;;;32.25;17.58;;;6.70;99.90;;;;;;5014362;28;20572;-73
2021/03/25 04:27:46;;;;;;;33.25;18.63;;;6.70;99.90;;;;;;5018866;28;20183;-73
2021/03/25 04:30:22;;;;;;;29.85;19.48;;;6.70;99.90;;;;;;5013664;28;20174;-73
2021/03/25 04:32:50;;;;;;;32.72;19.63;;;6.70;99.90;;;;;;5011222;28;20213;-73
2021/03/25 04:35:22;;;;;;;33.75;18.35;;;6.70;99.90;;;;;;5010358;28;20166;-73
2021/03/25 04:37:51;;;;;;;32.40;16.60;;;6.70;99.90;;;;;;5013611;28;20205;-73
2021/03/25 04:40:28;;;;;;;28.83;17.53;;;6.60;99.90;;;;;;4997495;28;20235;-73
2021/03/25 04:42:54;;;;;;;33.67;18.60;;;6.60;99.90;;;;;;5029686;28;20463;-73
2021/03/25 04:45:45;;;;;;;34.37;18.40;;;6.60;99.90;;;;;;5030942;28;20367;-73
2021/03/25 04:48:17;;;;;;;35.72;19.90;;;6.50;99.90;;;;;;5030983;28;20429;-73
2021/03/25 04:51:12;;;;;;;31.93;18.60;;;6.50;99.90;;;;;;5031204;28;20254;-73
2021/03/25 04:53:40;;;;;;;33.33;19.05;;;6.60;99.90;;;;;;5012798;28;20809;-73
2021/03/25 04:56:16;;;;;;;35.42;19.90;;;6.60;99.90;;;;;;5013333;28;20178;-73
2021/03/25 04:58:55;;;;;;;31.25;17.98;;;6.60;99.90;;;;;;5030895;28;20240;-73
2021/03/25 05:01:28;;;;;;;38.03;20.67;;;6.60;99.90;;;;;;5031457;28;20181;-73
2021/03/25 05:03:59;;;;;;;30.63;19.47;;;6.70;99.90;;;;;;5030107;28;20309;-73
2021/03/25 05:06:55;;;;;;;32.85;17.88;;;6.70;99.90;;;;;;5013299;28;20411;-73
2021/03/25 05:09:24;;;;;;;34.15;19.77;;;6.70;99.90;;;;;;5025736;28;20236;-73
2021/03/25 05:11:50;;;;;;;32.47;19.27;;;6.70;99.90;;;;;;5013163;28;20182;-73
2021/03/25 05:14:25;;;;;;;31.60;19.40;;;6.60;99.90;;;;;;5000251;28;20205;-72
2021/03/25 05:17:00;;;;;;;34.13;19.77;;;6.60;99.90;;;;;;5014530;28;20213;-73
2021/03/25 05:20:05;;;;;;;32.55;20.80;;;6.60;99.90;;;;;;5013824;28;20461;-73
2021/03/25 05:22:45;;;;;;;35.03;19.48;;;6.60;99.90;;;;;;5026221;28;20251;-73
2021/03/25 05:25:24;;;;;;;37.22;20.05;;;6.60;99.90;;;;;;5034237;28;20218;-73
2021/03/25 05:27:59;;;;;;;40.15;21.48;;;6.60;99.90;;;;;;5033209;28;20703;-73
2021/03/25 05:30:32;;;;;;;34.93;18.33;;;6.60;99.90;;;;;;5034863;28;20526;-73
2021/03/25 05:33:08;;;;;;;37.20;20.67;;;6.60;99.90;;;;;;5033459;28;20447;-74
2021/03/25 05:35:48;;;;;;;30.95;18.40;;;6.60;99.90;;;;;;5000534;28;20177;-73
2021/03/25 05:38:15;;;;;;;34.90;19.35;;;6.60;99.90;;;;;;5015639;28;20179;-72
2021/03/25 05:41:08;;;;;;;42.80;21.23;;;6.60;99.90;;;;;;5016039;28;20213;-74
2021/03/25 05:43:52;;;;;;;39.42;20.67;;;6.60;99.90;;;;;;5033558;28;20206;-73
2021/03/25 05:46:43;;;;;;;32.13;19.38;;;6.60;99.90;;;;;;5034359;28;20542;-73
2021/03/25 05:49:17;;;;;;;32.95;21.20;;;6.70;99.90;;;;;;5014608;28;20577;-74
2021/03/25 05:51:47;;;;;;;32.20;19.95;;;6.70;99.90;;;;;;4998557;28;20210;-74
2021/03/25 05:54:42;;;;;;;34.22;20.45;;;6.70;99.90;;;;;;4999749;28;20201;-74
2021/03/25 05:57:39;;;;;;;32.22;18.77;;;6.70;99.90;;;;;;4978765;28;20208;-74
2021/03/25 06:00:27;;;;;;;33.03;21.50;;;6.60;99.90;;;;;;5016253;28;20754;-74
2021/03/25 06:03:04;;;;;;;33.55;19.40;;;6.80;99.90;;;;;;5015491;28;20209;-75
2021/03/25 06:05:30;;;;;;;36.28;19.55;;;6.80;99.90;;;;;;5016121;28;20204;-75
2021/03/25 06:08:39;;;;;;;35.58;20.05;;;6.70;99.90;;;;;;5033544;28;20594;-76
2021/03/25 06:11:19;;;;;;;33.58;19.63;;;6.70;99.90;;;;;;5005029;28;20205;-75
2021/03/25 06:14:17;;;;;;;31.52;20.92;;;6.60;99.90;;;;;;4998519;28;20205;-75
2021/03/25 06:17:31;;;;;;;38.85;19.70;;;6.60;99.90;;;;;;5033165;28;20703;-75
2021/03/25 06:20:39;;;;;;;32.30;19.60;;;6.60;99.90;;;;;;5002848;28;20187;-75
2021/03/25 06:23:42;;;;;;;36.80;19.55;;;6.60;99.90;;;;;;5027137;28;20710;-75
2021/03/25 06:26:39;;;;;;;34.90;20.67;;;6.70;99.90;;;;;;5008070;28;20232;-75
2021/03/25 06:29:14;;;;;;;37.10;20.83;;;6.80;99.90;;;;;;4997339;28;20189;-75
2021/03/25 06:31:41;;;;;;;33.43;20.77;;;6.80;99.90;;;;;;5032242;28;20193;-75
2021/03/25 06:34:26;;;;;;;40.10;20.60;;;6.90;99.90;;;;;;4998782;28;20397;-75
2021/03/25 06:37:00;;;;;;;30.02;19.55;;;7.00;99.90;;;;;;5015222;28;21178;-76
2021/03/25 06:39:46;;;;;;;32.07;19.57;;;7.20;99.90;;;;;;5033009;28;20179;-76
2021/03/25 06:42:12;;;;;;;33.80;19.73;;;7.30;99.90;;;;;;5010751;28;20526;-76
2021/03/25 06:44:46;;;;;;;34.30;20.70;;;7.40;99.90;;;;;;5032059;28;20241;-74
2021/03/25 06:47:47;;;;;;;33.70;20.63;;;7.50;99.90;;;;;;5033896;28;20813;-76
2021/03/25 06:50:19;;;;;;;33.00;19.70;;;7.60;99.90;;;;;;5015403;28;20555;-74
2021/03/25 06:52:45;;;;;;;35.47;20.30;;;7.70;99.90;;;;;;5032548;28;20800;-74
2021/03/25 06:55:18;;;;;;;38.73;21.00;;;7.80;99.90;;;;;;5033576;28;20423;-74
2021/03/25 06:57:58;;;;;;;39.57;22.23;;;7.90;99.90;;;;;;5033178;28;20418;-74
2021/03/25 07:00:28;;;;;;;37.27;22.00;;;8.00;99.90;;;;;;5020518;28;21323;-74
2021/03/25 07:02:56;;;;;;;39.83;21.00;;;8.10;99.90;;;;;;4995741;28;20808;-73
2021/03/25 07:05:26;;;;;;;38.13;21.50;;;8.20;99.90;;;;;;5013332;28;20632;-74
2021/03/25 07:07:59;;;;;;;39.60;23.00;;;8.40;99.90;;;;;;4999201;28;20414;-74
2021/03/25 07:10:25;;;;;;;37.40;21.97;;;8.50;99.90;;;;;;5015346;28;20421;-74
2021/03/25 07:12:54;;;;;;;41.20;23.63;;;8.70;99.90;;;;;;5012214;28;20468;-74
2021/03/25 07:15:26;;;;;;;39.23;23.40;;;8.80;99.90;;;;;;5007321;28;20440;-76
2021/03/25 07:17:53;;;;;;;38.63;23.07;;;9.00;99.90;;;;;;5021609;28;20429;-76
2021/03/25 07:20:29;;;;;;;39.63;22.50;;;9.00;99.90;;;;;;5027973;28;20501;-77
2021/03/25 07:23:12;;;;;;;41.23;23.60;;;9.20;99.90;;;;;;4996405;28;20884;-76
2021/03/25 07:25:41;;;;;;;38.33;22.70;;;9.20;99.90;;;;;;5000884;28;20466;-76
2021/03/25 07:28:15;;;;;;;42.93;24.40;;;9.30;99.90;;;;;;5021614;28;20431;-76
2021/03/25 07:31:01;;;;;;;46.57;26.87;;;9.40;99.90;;;;;;5022150;28;20442;-76
2021/03/25 07:33:30;;;;;;;47.87;27.00;;;9.40;99.90;;;;;;4994939;28;20957;-76
2021/03/25 07:36:05;;;;;;;46.50;26.90;;;9.50;99.90;;;;;;4983645;28;20458;-76
2021/03/25 07:38:37;;;;;;;46.07;27.50;;;9.60;99.90;;;;;;4980244;28;20560;-76
2021/03/25 07:41:07;;;;;;;47.97;28.27;;;9.70;99.90;;;;;;5021048;28;20501;-76
2021/03/25 07:44:02;;;;;;;44.27;27.30;;;9.80;99.90;;;;;;5020471;28;20466;-76
2021/03/25 07:46:28;;;;;;;41.13;26.93;;;10.00;99.90;;;;;;5000619;28;20436;-76
2021/03/25 07:48:58;;;;;;;49.57;29.27;;;10.10;99.90;;;;;;4992057;28;20860;-76
2021/03/25 07:51:25;;;;;;;47.30;28.03;;;10.10;99.90;;;;;;5011721;28;20461;-76
2021/03/25 07:54:24;;;;;;;52.67;29.57;;;10.20;99.90;;;;;;4989197;28;20821;-75
2021/03/25 07:57:00;;;;;;;49.57;28.60;;;10.30;99.90;;;;;;4978714;28;20987;-75
2021/03/25 07:59:50;;;;;;;56.07;32.70;;;10.30;99.90;;;;;;5007014;28;20463;-77
2021/03/25 08:02:33;;;;;;;53.33;31.60;;;10.40;99.90;;;;;;5017912;28;20531;-76
2021/03/25 08:05:31;;;;;;;54.83;32.07;;;10.40;99.90;;;;;;4980389;28;20964;-76
2021/03/25 08:08:30;;;;;;;52.80;31.23;;;10.50;99.90;;;;;;5046570;23;20551;-75
2021/03/25 08:11:11;;;;;;;49.60;30.60;;;10.70;99.90;;;;;;5056449;28;20548;-75
2021/03/25 08:13:50;;;;;;;52.93;32.00;;;10.70;99.90;;;;;;5055364;28;20491;-74
2021/03/25 08:16:17;;;;;;;52.00;31.83;;;10.60;99.90;;;;;;5054769;28;20487;-75
2021/03/25 08:19:03;;;;;;;60.93;34.37;;;10.70;99.90;;;;;;5054792;28;20422;-75
2021/03/25 08:21:57;;;;;;;53.07;34.53;;;10.80;99.90;;;;;;5037916;28;20484;-75
2021/03/25 08:24:25;;;;;;;59.47;33.70;;;10.90;99.90;;;;;;5054310;28;20450;-76
2021/03/25 08:27:27;;;;;;;56.30;34.33;;;10.90;99.90;;;;;;5071558;28;20448;-76
2021/03/25 08:30:47;;;;;;;62.10;36.47;;;11.00;99.90;;;;;;5073160;28;20670;-75
2021/03/25 08:33:28;;;;;;;58.90;34.80;;;11.10;99.90;;;;;;5053444;28;20445;-75
2021/03/25 08:36:18;;;;;;;56.53;36.50;;;11.10;99.90;;;;;;5072825;28;20981;-76
2021/03/25 08:39:17;;;;;;;58.80;35.07;;;11.10;99.90;;;;;;5046626;28;20435;-75
2021/03/25 08:42:22;;;;;;;60.63;36.20;;;11.20;99.90;;;;;;5039871;28;20788;-75
2021/03/25 08:44:56;;;;;;;67.30;45.83;;;11.30;99.90;;;;;;5071988;28;20499;-76
2021/03/25 08:47:50;;;;;;;57.77;37.63;;;11.30;99.90;;;;;;5072370;28;20508;-76
2021/03/25 08:51:03;;;;;;;62.80;38.27;;;11.30;99.90;;;;;;5049883;28;20416;-73
2021/03/25 08:53:39;;;;;;;62.27;38.47;;;11.40;99.90;;;;;;5040063;28;20449;-75
2021/03/25 08:56:16;;;;;;;58.03;36.17;;;11.50;99.90;;;;;;5076520;28;20866;-74
2021/03/25 08:58:43;;;;;;;55.10;34.60;;;11.50;99.90;;;;;;5041484;28;20415;-75
2021/03/25 09:01:22;;;;;;;59.90;38.20;;;11.50;99.90;;;;;;5041473;28;20402;-75
2021/03/25 09:03:56;;;;;;;59.43;38.40;;;11.60;99.90;;;;;;5058010;28;20490;-75
2021/03/25 09:06:28;;;;;;;56.97;38.20;;;11.60;99.90;;;;;;5058043;28;20445;-75
2021/03/25 09:09:17;;;;;;;62.63;36.67;;;11.70;99.90;;;;;;5041180;28;20449;-75
2021/03/25 09:11:44;;;;;;;65.80;39.50;;;11.80;99.90;;;;;;5039521;28;20471;-75
2021/03/25 09:14:30;;;;;;;67.20;40.23;;;11.70;99.90;;;;;;5041450;28;20405;-75
2021/03/25 09:17:04;;;;;;;65.73;40.30;;;11.70;99.90;;;;;;5058192;28;20981;-75
2021/03/25 09:19:38;;;;;;;71.47;41.77;;;11.80;99.90;;;;;;5058155;28;20905;-75
2021/03/25 09:22:05;;;;;;;67.87;41.57;;;11.80;99.90;;;;;;5057726;28;20818;-75
2021/03/25 09:24:31;;;;;;;68.00;41.37;;;12.10;99.90;;;;;;5057817;28;20918;-75
2021/03/25 09:27:08;;;;;;;67.40;41.07;;;12.10;99.90;;;;;;5057668;28;20419;-75
2021/03/25 09:30:03;;;;;;;68.77;42.10;;;12.00;99.90;;;;;;5057916;28;20751;-75
2021/03/25 09:32:38;;;;;;;68.30;41.23;;;12.00;99.90;;;;;;5040885;28;20970;-75
2021/03/25 09:35:40;;;;;;;67.63;42.90;;;12.00;99.90;;;;;;5074805;28;20432;-75
2021/03/25 09:38:27;;;;;;;70.67;40.40;;;12.20;99.90;;;;;;5057606;28;20433;-75
2021/03/25 09:40:54;;;;;;;67.40;40.33;;;12.20;99.90;;;;;;5057588;28;20418;-75
2021/03/25 09:43:34;;;;;;;68.20;42.70;;;12.20;99.90;;;;;;5057149;28;20529;-74
2021/03/25 09:46:22;;;;;;;69.93;42.43;;;12.20;99.90;;;;;;5057561;28;20805;-75
2021/03/25 09:48:51;;;;;;;65.47;42.50;;;12.30;99.90;;;;;;5075376;28;20414;-75
2021/03/25 09:51:28;;;;;;;50.13;35.83;;;12.50;99.90;;;;;;5075154;28;20884;-75
2021/03/25 09:53:57;;;;;;;61.20;39.20;;;12.60;99.90;;;;;;5074875;28;20466;-75
2021/03/25 09:56:32;;;;;;;55.73;38.67;;;12.80;99.90;;;;;;5057412;28;20405;-75
2021/03/25 09:58:59;;;;;;;54.53;36.83;;;13.00;99.90;;;;;;5040080;28;20410;-75
2021/03/25 10:01:54;;;;;;;58.33;37.60;;;13.30;99.90;;;;;;5074024;28;20857;-75
2021/03/25 10:04:34;;;;;;;47.00;33.27;;;13.50;99.90;;;;;;5040343;28;20434;-75
2021/03/25 10:07:14;;;;;;;36.90;29.10;;;13.60;99.90;;;;;;5057140;28;20411;-75
2021/03/25 10:09:49;;;;;;;44.30;29.90;;;13.80;99.90;;;;;;5074851;28;20418;-75
2021/03/25 10:13:12;;;;;;;42.03;30.50;;;13.70;99.90;;;;;;5056847;28;20776;-75
2021/03/25 10:15:45;;;;;;;42.07;29.70;;;13.50;99.90;;;;;;5015283;28;20425;-75
2021/03/25 10:18:17;;;;;;;39.10;28.67;;;13.50;99.90;;;;;;5056824;28;20409;-75
2021/03/25 10:20:52;;;;;;;44.67;29.33;;;13.60;99.90;;;;;;5074493;28;20411;-75
2021/03/25 10:23:37;;;;;;;47.00;30.73;;;13.60;99.90;;;;;;5056707;28;20423;-75
2021/03/25 10:26:03;;;;;;;48.83;32.27;;;13.60;99.90;;;;;;5074367;28;20460;-75
2021/03/25 10:28:36;;;;;;;41.13;30.47;;;13.70;99.90;;;;;;5039153;28;20781;-74
2021/03/25 10:31:12;;;;;;;46.60;30.67;;;14.00;99.90;;;;;;5042736;28;20828;-75
2021/03/25 10:33:39;;;;;;;41.73;29.20;;;14.10;99.90;;;;;;5057881;28;20447;-73
2021/03/25 10:36:14;;;;;;;41.90;28.40;;;14.30;99.90;;;;;;5021192;28;21497;-73
2021/03/25 10:38:52;;;;;;;40.63;26.53;;;14.30;99.90;;;;;;5055972;28;20435;-73
2021/03/25 10:41:32;;;;;;;39.63;29.67;;;14.30;99.90;;;;;;5020723;28;20446;-73
2021/03/25 10:44:39;;;;;;;39.83;27.80;;;14.30;99.90;;;;;;5033279;28;20770;-72
2021/03/25 10:47:19;;;;;;;37.57;29.27;;;14.40;99.90;;;;;;5073021;28;20437;-73
2021/03/25 10:49:54;;;;;;;41.63;28.27;;;14.60;99.90;;;;;;5020403;28;20438;-72
2021/03/25 10:52:34;;;;;;;37.30;29.07;;;14.80;99.90;;;;;;5032144;28;20447;-73
2021/03/25 10:55:24;;;;;;;40.03;29.43;;;15.00;99.90;;;;;;5036811;28;20439;-74
2021/03/25 10:57:52;;;;;;;39.80;28.17;;;15.20;99.90;;;;;;5022065;28;20476;-73
2021/03/25 11:00:31;;;;;;;36.90;28.73;;;15.30;99.60;;;;;;5072188;28;20472;-72
2021/03/25 11:02:59;;;;;;;38.00;29.90;;;15.30;99.10;;;;;;5037811;28;20449;-72
2021/03/25 11:05:34;;;;;;;40.50;30.73;;;15.40;99.00;;;;;;5038592;28;20472;-75
2021/03/25 11:08:03;;;;;;;43.13;30.13;;;15.60;99.40;;;;;;5052202;28;20449;-72
2021/03/25 11:10:35;;;;;;;40.80;30.17;;;15.60;97.60;;;;;;5069957;28;20425;-76
2021/03/25 11:13:13;;;;;;;37.40;29.40;;;15.70;98.20;;;;;;5043824;28;20447;-77
2021/03/25 11:15:44;;;;;;;38.23;28.20;;;15.90;97.20;;;;;;5035227;28;20582;-76
2021/03/25 11:18:20;;;;;;;38.03;27.00;;;15.70;97.30;;;;;;5050362;28;20429;-76
2021/03/25 11:20:47;;;;;;;36.90;27.43;;;15.80;97.40;;;;;;5052240;28;20439;-77
2021/03/25 11:23:17;;;;;;;40.60;26.50;;;15.90;97.10;;;;;;5044089;28;20473;-78
2021/03/25 11:25:44;;;;;;;36.30;26.33;;;16.00;96.50;;;;;;5052801;28;20453;-78
2021/03/25 11:28:19;;;;;;;34.77;27.20;;;16.10;97.10;;;;;;5067383;28;20418;-78
2021/03/25 11:30:50;;;;;;;34.20;26.67;;;16.20;96.10;;;;;;5055771;28;20917;-77
2021/03/25 11:33:29;;;;;;;36.37;27.40;;;16.30;96.30;;;;;;5032039;28;20477;-74
2021/03/25 11:35:57;;;;;;;33.07;27.17;;;16.40;95.70;;;;;;5064969;28;20543;-76
2021/03/25 11:38:27;;;;;;;32.40;25.70;;;16.60;94.80;;;;;;5033019;28;20807;-77
2021/03/25 11:40:55;;;;;;;36.13;27.20;;;16.50;95.40;;;;;;5030097;28;20572;-75
2021/03/25 11:43:39;;;;;;;34.77;26.77;;;16.60;94.60;;;;;;5049390;28;20503;-75
2021/03/25 11:46:08;;;;;;;37.63;27.40;;;16.70;94.20;;;;;;5043058;28;20467;-75
2021/03/25 11:48:37;;;;;;;34.13;27.20;;;16.80;94.80;;;;;;5057532;28;20490;-75
2021/03/25 11:51:18;;;;;;;33.67;27.40;;;16.80;94.20;;;;;;5041998;28;20421;-75
2021/03/25 11:53:50;;;;;;;35.70;27.87;;;16.70;94.00;;;;;;5064805;28;20476;-75
2021/03/25 11:56:29;;;;;;;38.93;27.73;;;16.50;94.50;;;;;;5060159;28;20437;-73
2021/03/25 11:59:23;;;;;;;39.93;28.53;;;16.80;94.70;;;;;;5035945;28;20521;-75
2021/03/25 12:02:05;;;;;;;41.47;30.20;;;17.10;94.40;;;;;;5050246;28;20453;-75
2021/03/25 12:04:31;;;;;;;30.43;26.50;;;17.40;93.30;;;;;;5064687;28;20468;-74
2021/03/25 12:07:01;;;;;;;31.50;27.17;;;17.60;93.20;;;;;;5028187;28;20430;-74
2021/03/25 12:09:28;;;;;;;37.80;27.57;;;17.60;92.90;;;;;;5046717;28;20441;-74
2021/03/25 12:11:55;;;;;;;31.07;24.97;;;17.70;93.00;;;;;;5049491;28;20446;-74
2021/03/25 12:14:24;;;;;;;32.00;25.47;;;17.70;93.00;;;;;;5045356;28;21002;-74
2021/03/25 12:16:55;;;;;;;31.93;24.40;;;17.70;92.30;;;;;;5034147;28;20427;-74
2021/03/25 12:19:24;;;;;;;30.40;25.07;;;17.70;92.00;;;;;;5057235;28;20426;-74
2021/03/25 12:21:51;;;;;;;33.30;24.93;;;17.70;91.60;;;;;;5049462;28;20433;-74
2021/03/25 12:24:17;;;;;;;31.10;24.07;;;17.80;92.00;;;;;;5043614;28;20428;-73
2021/03/25 12:26:46;;;;;;;28.83;23.17;;;17.60;92.30;;;;;;5048241;28;20982;-74
2021/03/25 12:29:13;;;;;;;34.00;23.10;;;17.50;92.20;;;;;;5049270;28;20795;-74
2021/03/25 12:31:42;;;;;;;33.20;23.70;;;17.30;92.50;;;;;;5042097;28;20422;-73
2021/03/25 12:34:10;;;;;;;29.20;24.43;;;17.10;92.30;;;;;;5048334;28;20930;-74
2021/03/25 12:36:37;;;;;;;26.20;22.27;;;17.00;92.90;;;;;;5049357;28;20432;-74
2021/03/25 12:39:08;;;;;;;26.00;22.10;;;16.90;93.10;;;;;;5068477;28;20918;-74
2021/03/25 12:41:41;;;;;;;24.63;21.77;;;16.90;92.30;;;;;;5044469;28;20522;-73
2021/03/25 12:44:12;;;;;;;23.17;20.67;;;16.90;92.70;;;;;;5066595;28;20501;-74
2021/03/25 12:46:40;;;;;;;26.53;22.17;;;16.80;93.10;;;;;;5067060;28;20460;-74
2021/03/25 12:49:06;;;;;;;32.20;22.10;;;16.80;93.10;;;;;;5045079;28;20984;-73
2021/03/25 12:51:33;;;;;;;26.60;21.37;;;17.10;92.50;;;;;;5056092;28;20771;-73
2021/03/25 12:53:59;;;;;;;25.50;21.03;;;17.30;91.90;;;;;;5047252;28;20484;-73
2021/03/25 12:56:28;;;;;;;23.93;21.40;;;17.40;92.20;;;;;;5050475;28;21097;-73
2021/03/25 12:58:55;;;;;;;20.77;18.57;;;17.50;90.60;;;;;;5048120;28;20425;-73
2021/03/25 13:01:27;;;;;;;21.73;19.37;;;17.60;91.10;;;;;;5034234;28;20421;-73
2021/03/25 13:03:54;;;;;;;22.43;19.30;;;17.90;90.70;;;;;;5050091;28;20452;-73
2021/03/25 13:06:23;;;;;;;20.97;18.70;;;18.10;90.50;;;;;;5049745;28;20515;-73
2021/03/25 13:08:50;;;;;;;24.07;19.40;;;18.40;88.10;;;;;;5046758;28;21000;-73
2021/03/25 13:11:28;;;;;;;20.57;18.57;;;18.20;89.00;;;;;;5039747;28;20431;-73
2021/03/25 13:13:55;;;;;;;22.63;20.40;;;17.80;89.50;;;;;;5045570;28;20549;-73
2021/03/25 13:16:22;;;;;;;22.40;18.67;;;17.50;90.20;;;;;;5028596;28;20427;-73
2021/03/25 13:18:49;;;;;;;23.30;20.10;;;17.30;90.50;;;;;;5048605;28;20484;-73
2021/03/25 13:21:16;;;;;;;24.60;19.67;;;17.00;92.20;;;;;;5045016;28;20423;-73
2021/03/25 13:23:45;;;;;;;23.93;20.70;;;16.70;93.10;;;;;;5047387;28;20453;-73
2021/03/25 13:26:12;;;;;;;22.13;19.83;;;16.40;93.80;;;;;;5046212;28;20489;-73